ADDS METAR Data INFO
IDs: Format: Raw Decoded Include TAF

Data at: 1950 UTC 15 Dec 2017

KANE 151947Z 00000KT 10SM OVC045 M04/M08 A2980
KANE 151850Z 32003KT 10SM BKN045 OVC100 M04/M09 A2983
KANE 151745Z 00000KT 10SM SCT016 BKN100 M05/M09 A2986
KANE 151650Z 36003KT 10SM BKN016 M06/M09 A2988
KANE 151550Z 04003KT 10SM BKN022 M06/M09 A2988
KANE 151450Z 31003KT 10SM OVC022 M06/M08 A2988
KANE 151350Z 31003KT 10SM BKN024 M06/M08 A2988
KANE 151250Z 34004KT 10SM OVC018 M05/M08 A2989
KANE 151245Z AUTO 35003KT 10SM OVC018 M05/M08 A2989 RMK AO2
KANE 151230Z AUTO 00000KT 10SM OVC020 M05/M08 A2989 RMK AO2
KANE 151215Z AUTO 00000KT 10SM SCT014 OVC020 M05/M08 A2989 RMK AO2
KANE 151155Z AUTO 34004KT 10SM OVC018 M05/M08 A2990 RMK AO2
KANE 151135Z AUTO 34004KT 10SM BKN020 OVC047 M05/M07 A2990 RMK AO2
KANE 151115Z AUTO 33003KT 10SM OVC045 M05/M07 A2990 RMK AO2
KANE 151055Z AUTO 34003KT 10SM SCT026 OVC045 M05/M07 A2990 RMK AO2
KANE 151035Z AUTO 00000KT 10SM OVC045 M05/M07 A2990 RMK AO2
KANE 151015Z AUTO 29005KT 10SM -SN OVC041 M05/M07 A2991 RMK AO2
KANE 150955Z AUTO 29006KT 10SM OVC039 M05/M07 A2992 RMK AO2
KANE 150935Z AUTO 28006KT 10SM OVC039 M04/M07 A2992 RMK AO2
KANE 150915Z AUTO 28007KT 7SM -SN OVC041 M04/M07 A2992 RMK AO2
KANE 150855Z AUTO 27007KT 7SM -SN BKN041 OVC047 M05/M07 A2993 RMK AO2
KANE 150835Z AUTO 29007KT 10SM -SN OVC047 M05/M08 A2993 RMK AO2
KANE 150815Z AUTO 28006KT 10SM OVC047 M05/M08 A2993 RMK AO2
KANE 150755Z AUTO 27004KT 10SM OVC045 M05/M08 A2992 RMK AO2
KANE 150735Z AUTO 27006KT 10SM OVC041 M05/M08 A2993 RMK AO2
KANE 150715Z AUTO 29010KT 10SM OVC041 M05/M08 A2994 RMK AO2
KANE 150655Z AUTO 29009KT 10SM OVC043 M05/M08 A2994 RMK AO2
KANE 150635Z AUTO 28010KT 10SM BKN045 M05/M08 A2995 RMK AO2
KANE 150615Z AUTO 28008KT 10SM OVC043 M05/M08 A2995 RMK AO2
KANE 150555Z AUTO 28012G16KT 10SM OVC045 M05/M09 A2996 RMK AO2
KANE 150535Z AUTO 28010KT 10SM OVC045 M05/M09 A2996 RMK AO2
KANE 150515Z AUTO 28009KT 10SM OVC043 M05/M09 A2996 RMK AO2
KANE 150455Z AUTO 29011G15KT 10SM OVC045 M05/M09 A2997 RMK AO2
KANE 150435Z AUTO 29011KT 10SM SCT025 OVC045 M05/M09 A2997 RMK AO2
KANE 150415Z AUTO 30013G16KT 10SM BKN025 OVC047 M05/M09 A2997 RMK AO2
KANE 150355Z AUTO 29012G18KT 10SM BKN025 OVC047 M05/M09 A2998 RMK AO2
KANE 150335Z AUTO 31014G19KT 10SM SCT020 OVC027 M04/M09 A2999 RMK AO2
KANE 150315Z AUTO 32010KT 10SM BKN020 OVC027 M04/M08 A2999 RMK AO2
KANE 150245Z 300012G16KT 10SM OVC020 M04/M08 A2999
KANE 150150Z 30007KT 10SM OVC022 M04/M08 A3000
KANE 150050Z 26006KT 10SM OVC022 M05/M08 A3001
KANE 142350Z 31006KT 10SM -SN OVC024 M05/M09 A3001
KANE 142255Z 29009KT 10SM -SN OVC022 M05/M08 A3002
KANE 142225Z 29009KT 10SM -SN OVC022 M05/M08 A3002
KANE 142150Z 28009G14KT 10SM OVC016 M05/M07 A3000
KANE 142045Z 25007KT 10SM OVC016 M05/M08 A3000
KANE 141945Z 25007KT 10SM -SN OVC016 M05/M08 A3001
KANE 141930Z 25007KT 5SM -SN OVC016 M05/M08 A3001
KANE 141845Z 25007KT 2SM -SN OVC014 M05/M08 A3001
KANE 141745Z 25005KT 10SM OVC015 M06/M08 A3003
KANE 141645Z 21003KT 10SM OVC018 M06/M09 A3003
KANE 141620Z 21005KT 10SM OVC018 M07/M09 A3003
KANE 141545Z 22004KT 10SM OVC020 M07/M09 A3004
KANE 141445Z 22004KT 10SM BKN022 M08/M09 A3002
KANE 141412Z 00000KT 10SM BKN024 M09/M11 A3001
KANE 141345Z 00000KT 10SM BKN034 M11/M11 A3002
KANE 141255Z 00000KT 10SM SCT034 M10/M12 A3001
KANE 141245Z AUTO 00000KT 10SM CLR M09/M11 A3001 RMK AO2
KANE 141230Z AUTO 00000KT 10SM SCT030 M09/M11 A3000 RMK AO2
KANE 141215Z AUTO 00000KT 10SM SCT032 M09/M11 A3000 RMK AO2
KANE 141155Z AUTO 30004KT 10SM CLR M10/M12 A3001 RMK AO2
KANE 141135Z AUTO 27004KT 10SM SCT034 M09/M11 A2999 RMK AO2
KANE 141115Z AUTO 32003KT 10SM BKN034 M08/M10 A2999 RMK AO2
KANE 141055Z AUTO 30005KT 10SM -SN OVC034 M08/M10 A3000 RMK AO2
KANE 141035Z AUTO 30005KT 10SM OVC034 M07/M09 A3000 RMK AO2
KANE 141015Z AUTO 29004KT 10SM -SN OVC032 M07/M09 A3000 RMK AO2
KANE 140955Z AUTO 28004KT 10SM -SN OVC032 M07/M09 A2999 RMK AO2
KANE 140935Z AUTO 29007KT 10SM -SN OVC032 M07/M09 A3000 RMK AO2
KANE 140915Z AUTO 28006KT 10SM OVC032 M07/M09 A3000 RMK AO2
KANE 140855Z AUTO 27006KT 10SM OVC032 M07/M09 A2999 RMK AO2
KANE 140835Z AUTO 28007KT 10SM OVC032 M07/M09 A3000 RMK AO2
KANE 140815Z AUTO 28005KT 10SM OVC032 M06/M08 A2999 RMK AO2
KANE 140755Z AUTO 27004KT 10SM -SN OVC034 M06/M08 A2997 RMK AO2